sensor_id;sensor_type;location;lat;lon;timestamp;noise_LAeq;noise_LA_min;noise_LA_max;noise_LA01;noise_LA95
67322;Laerm;57666;51.436;5.978;2023-12-22T00:00:03;40.93;37.03;49.65;;
67322;Laerm;57666;51.436;5.978;2023-12-22T00:00:14;39.24;36.85;47.81;;
67322;Laerm;57666;51.436;5.978;2023-12-22T00:00:25;38.75;36.48;47.70;;
67322;Laerm;57666;51.436;5.978;2023-12-22T00:00:35;38.15;36.66;39.89;;
67322;Laerm;57666;51.436;5.978;2023-12-22T00:00:46;38.53;36.61;44.67;;
67322;Laerm;57666;51.436;5.978;2023-12-22T00:00:57;40.75;36.54;46.32;;
67322;Laerm;57666;51.436;5.978;2023-12-22T00:01:07;38.67;36.48;44.67;;
67322;Laerm;57666;51.436;5.978;2023-12-22T00:01:18;38.33;36.45;43.77;;
67322;Laerm;57666;51.436;5.978;2023-12-22T00:01:28;38.49;36.63;41.59;;
67322;Laerm;57666;51.436;5.978;2023-12-22T00:01:38;39.31;36.90;46.71;;
67322;Laerm;57666;51.436;5.978;2023-12-22T00:01:49;40.41;36.68;49.19;;
67322;Laerm;57666;51.436;5.978;2023-12-22T00:01:59;38.39;36.63;44.49;;
67322;Laerm;57666;51.436;5.978;2023-12-22T00:02:09;38.03;36.31;39.29;;
67322;Laerm;57666;51.436;5.978;2023-12-22T00:02:20;38.06;36.36;39.39;;
67322;Laerm;57666;51.436;5.978;2023-12-22T00:02:30;38.74;36.29;47.44;;
67322;Laerm;57666;51.436;5.978;2023-12-22T00:02:41;38.51;36.88;40.38;;
67322;Laerm;57666;51.436;5.978;2023-12-22T00:02:51;42.76;37.27;55.19;;
67322;Laerm;57666;51.436;5.978;2023-12-22T00:03:02;39.95;36.87;46.33;;
67322;Laerm;57666;51.436;5.978;2023-12-22T00:03:13;41.17;37.10;51.13;;
67322;Laerm;57666;51.436;5.978;2023-12-22T00:03:25;38.43;36.51;40.12;;
67322;Laerm;57666;51.436;5.978;2023-12-22T00:03:36;38.59;36.31;45.33;;
67322;Laerm;57666;51.436;5.978;2023-12-22T00:03:46;41.47;36.54;55.55;;
67322;Laerm;57666;51.436;5.978;2023-12-22T00:03:57;43.84;36.56;58.91;;
67322;Laerm;57666;51.436;5.978;2023-12-22T00:04:07;40.15;36.32;52.97;;
67322;Laerm;57666;51.436;5.978;2023-12-22T00:04:17;41.72;36.81;52.69;;
67322;Laerm;57666;51.436;5.978;2023-12-22T00:04:28;42.23;36.53;53.51;;
67322;Laerm;57666;51.436;5.978;2023-12-22T00:04:38;37.99;36.19;41.32;;
67322;Laerm;57666;51.436;5.978;2023-12-22T00:04:48;38.77;36.50;47.82;;
67322;Laerm;57666;51.436;5.978;2023-12-22T00:04:59;38.51;36.46;42.26;;
67322;Laerm;57666;51.436;5.978;2023-12-22T00:05:09;38.92;37.10;43.89;;
67322;Laerm;57666;51.436;5.978;2023-12-22T00:05:19;39.79;36.66;48.66;;
67322;Laerm;57666;51.436;5.978;2023-12-22T00:05:30;39.08;36.84;47.68;;
67322;Laerm;57666;51.436;5.978;2023-12-22T00:05:40;38.27;36.60;40.92;;
67322;Laerm;57666;51.436;5.978;2023-12-22T00:05:50;38.76;36.92;43.22;;
67322;Laerm;57666;51.436;5.978;2023-12-22T00:06:01;38.54;36.69;40.39;;
67322;Laerm;57666;51.436;5.978;2023-12-22T00:06:11;39.01;36.94;41.65;;
67322;Laerm;57666;51.436;5.978;2023-12-22T00:06:22;38.91;37.32;40.87;;
67322;Laerm;57666;51.436;5.978;2023-12-22T00:06:32;39.69;36.94;55.87;;
67322;Laerm;57666;51.436;5.978;2023-12-22T00:06:43;38.90;37.07;51.20;;
67322;Laerm;57666;51.436;5.978;2023-12-22T00:06:53;38.30;36.96;40.08;;
67322;Laerm;57666;51.436;5.978;2023-12-22T00:07:04;39.16;36.59;49.07;;
67322;Laerm;57666;51.436;5.978;2023-12-22T00:07:15;38.66;36.70;44.20;;
67322;Laerm;57666;51.436;5.978;2023-12-22T00:07:25;38.37;36.53;43.35;;
67322;Laerm;57666;51.436;5.978;2023-12-22T00:07:36;41.70;36.88;53.49;;
67322;Laerm;57666;51.436;5.978;2023-12-22T00:07:47;39.79;36.65;47.95;;
67322;Laerm;57666;51.436;5.978;2023-12-22T00:07:57;38.43;36.90;41.38;;
67322;Laerm;57666;51.436;5.978;2023-12-22T00:08:07;38.84;36.67;45.58;;
67322;Laerm;57666;51.436;5.978;2023-12-22T00:08:17;48.14;36.81;64.52;;
67322;Laerm;57666;51.436;5.978;2023-12-22T00:08:28;42.02;37.37;53.01;;
67322;Laerm;57666;51.436;5.978;2023-12-22T00:08:39;38.42;36.85;41.83;;
67322;Laerm;57666;51.436;5.978;2023-12-22T00:08:49;39.17;37.01;44.60;;
67322;Laerm;57666;51.436;5.978;2023-12-22T00:08:59;38.52;37.17;40.31;;
67322;Laerm;57666;51.436;5.978;2023-12-22T00:09:10;38.31;36.47;40.21;;
67322;Laerm;57666;51.436;5.978;2023-12-22T00:09:20;40.32;36.37;54.96;;
67322;Laerm;57666;51.436;5.978;2023-12-22T00:09:31;38.20;36.90;39.92;;
67322;Laerm;57666;51.436;5.978;2023-12-22T00:09:41;38.62;36.45;47.16;;
67322;Laerm;57666;51.436;5.978;2023-12-22T00:09:52;42.60;37.00;53.29;;
67322;Laerm;57666;51.436;5.978;2023-12-22T00:10:02;38.33;36.82;41.54;;
67322;Laerm;57666;51.436;5.978;2023-12-22T00:10:13;38.18;36.34;39.85;;
67322;Laerm;57666;51.436;5.978;2023-12-22T00:10:23;38.47;36.62;40.41;;
67322;Laerm;57666;51.436;5.978;2023-12-22T00:10:34;43.28;36.96;55.90;;
67322;Laerm;57666;51.436;5.978;2023-12-22T00:10:44;42.26;36.90;55.34;;
67322;Laerm;57666;51.436;5.978;2023-12-22T00:10:54;39.96;37.00;51.38;;
67322;Laerm;57666;51.436;5.978;2023-12-22T00:11:05;38.63;36.51;42.94;;
67322;Laerm;57666;51.436;5.978;2023-12-22T00:11:15;39.57;36.80;47.44;;
67322;Laerm;57666;51.436;5.978;2023-12-22T00:11:25;38.32;36.33;40.25;;
67322;Laerm;57666;51.436;5.978;2023-12-22T00:11:36;48.64;37.40;66.45;;
67322;Laerm;57666;51.436;5.978;2023-12-22T00:11:46;40.77;36.87;48.48;;
67322;Laerm;57666;51.436;5.978;2023-12-22T00:11:57;38.33;36.09;41.17;;
67322;Laerm;57666;51.436;5.978;2023-12-22T00:12:07;38.84;36.51;46.32;;
67322;Laerm;57666;51.436;5.978;2023-12-22T00:12:17;38.27;36.56;42.08;;
67322;Laerm;57666;51.436;5.978;2023-12-22T00:12:28;38.15;36.89;40.48;;
67322;Laerm;57666;51.436;5.978;2023-12-22T00:12:38;37.92;36.38;39.61;;
67322;Laerm;57666;51.436;5.978;2023-12-22T00:12:49;42.20;36.97;52.22;;
67322;Laerm;57666;51.436;5.978;2023-12-22T00:12:59;38.04;36.62;41.53;;
67322;Laerm;57666;51.436;5.978;2023-12-22T00:13:09;38.19;36.40;41.71;;
67322;Laerm;57666;51.436;5.978;2023-12-22T00:13:19;38.25;36.85;42.51;;
67322;Laerm;57666;51.436;5.978;2023-12-22T00:13:30;38.12;36.74;39.46;;
67322;Laerm;57666;51.436;5.978;2023-12-22T00:13:42;38.06;36.65;39.72;;
67322;Laerm;57666;51.436;5.978;2023-12-22T00:13:53;38.14;36.47;39.64;;
67322;Laerm;57666;51.436;5.978;2023-12-22T00:14:04;39.13;36.81;46.40;;
67322;Laerm;57666;51.436;5.978;2023-12-22T00:14:14;38.68;36.74;45.31;;
67322;Laerm;57666;51.436;5.978;2023-12-22T00:14:24;38.27;36.52;39.92;;
67322;Laerm;57666;51.436;5.978;2023-12-22T00:14:35;38.08;36.38;39.49;;
67322;Laerm;57666;51.436;5.978;2023-12-22T00:14:47;39.21;36.96;46.86;;
67322;Laerm;57666;51.436;5.978;2023-12-22T00:14:57;38.50;36.63;40.95;;
67322;Laerm;57666;51.436;5.978;2023-12-22T00:15:08;44.70;37.16;56.67;;
67322;Laerm;57666;51.436;5.978;2023-12-22T00:15:18;40.05;36.62;51.51;;
67322;Laerm;57666;51.436;5.978;2023-12-22T00:15:29;39.47;36.68;47.43;;
67322;Laerm;57666;51.436;5.978;2023-12-22T00:15:39;38.70;36.76;44.62;;
67322;Laerm;57666;51.436;5.978;2023-12-22T00:15:49;38.88;36.84;45.18;;
67322;Laerm;57666;51.436;5.978;2023-12-22T00:16:00;39.07;36.70;49.32;;
67322;Laerm;57666;51.436;5.978;2023-12-22T00:16:10;38.47;36.90;42.89;;
67322;Laerm;57666;51.436;5.978;2023-12-22T00:16:22;46.17;37.27;59.75;;
67322;Laerm;57666;51.436;5.978;2023-12-22T00:16:32;38.49;37.24;40.55;;
67322;Laerm;57666;51.436;5.978;2023-12-22T00:16:42;38.50;37.01;40.69;;
67322;Laerm;57666;51.436;5.978;2023-12-22T00:16:53;41.81;36.85;54.41;;
67322;Laerm;57666;51.436;5.978;2023-12-22T00:17:03;46.52;37.92;56.67;;
67322;Laerm;57666;51.436;5.978;2023-12-22T00:17:13;40.52;36.90;47.84;;
67322;Laerm;57666;51.436;5.978;2023-12-22T00:17:24;39.61;36.72;46.17;;
67322;Laerm;57666;51.436;5.978;2023-12-22T00:17:34;39.44;37.54;43.45;;
67322;Laerm;57666;51.436;5.978;2023-12-22T00:17:45;40.16;37.64;52.37;;
67322;Laerm;57666;51.436;5.978;2023-12-22T00:17:55;40.32;37.96;47.72;;
67322;Laerm;57666;51.436;5.978;2023-12-22T00:18:06;41.04;38.02;47.10;;
67322;Laerm;57666;51.436;5.978;2023-12-22T00:18:16;41.88;38.44;51.04;;
67322;Laerm;57666;51.436;5.978;2023-12-22T00:18:26;41.27;38.32;57.23;;
67322;Laerm;57666;51.436;5.978;2023-12-22T00:18:37;39.86;37.50;53.03;;
67322;Laerm;57666;51.436;5.978;2023-12-22T00:18:47;47.88;38.16;60.96;;
67322;Laerm;57666;51.436;5.978;2023-12-22T00:18:57;41.45;37.04;49.70;;
67322;Laerm;57666;51.436;5.978;2023-12-22T00:19:08;41.20;37.18;53.82;;
67322;Laerm;57666;51.436;5.978;2023-12-22T00:19:19;44.45;37.17;55.13;;
67322;Laerm;57666;51.436;5.978;2023-12-22T00:19:29;47.17;37.79;61.51;;
67322;Laerm;57666;51.436;5.978;2023-12-22T00:19:39;39.34;37.38;46.61;;
67322;Laerm;57666;51.436;5.978;2023-12-22T00:19:50;39.87;37.57;44.99;;
67322;Laerm;57666;51.436;5.978;2023-12-22T00:20:00;43.00;39.22;46.57;;
67322;Laerm;57666;51.436;5.978;2023-12-22T00:20:13;39.57;37.12;46.49;;
67322;Laerm;57666;51.436;5.978;2023-12-22T00:20:24;39.02;36.97;43.09;;
67322;Laerm;57666;51.436;5.978;2023-12-22T00:20:34;62.00;37.93;72.88;;
67322;Laerm;57666;51.436;5.978;2023-12-22T00:20:45;39.02;37.30;42.42;;
67322;Laerm;57666;51.436;5.978;2023-12-22T00:20:58;46.24;37.77;59.41;;
67322;Laerm;57666;51.436;5.978;2023-12-22T00:21:11;39.37;37.56;45.15;;
67322;Laerm;57666;51.436;5.978;2023-12-22T00:21:21;41.59;37.48;61.22;;
67322;Laerm;57666;51.436;5.978;2023-12-22T00:21:32;41.67;38.16;59.14;;
67322;Laerm;57666;51.436;5.978;2023-12-22T00:21:45;39.91;37.98;53.41;;
67322;Laerm;57666;51.436;5.978;2023-12-22T00:21:55;40.84;38.38;51.53;;
67322;Laerm;57666;51.436;5.978;2023-12-22T00:22:06;46.04;40.74;59.57;;
67322;Laerm;57666;51.436;5.978;2023-12-22T00:22:17;43.57;39.71;62.63;;
67322;Laerm;57666;51.436;5.978;2023-12-22T00:22:27;43.26;38.82;59.38;;
67322;Laerm;57666;51.436;5.978;2023-12-22T00:22:37;45.10;39.35;57.55;;
67322;Laerm;57666;51.436;5.978;2023-12-22T00:22:47;42.24;39.57;55.73;;
67322;Laerm;57666;51.436;5.978;2023-12-22T00:22:58;45.16;38.92;61.38;;
67322;Laerm;57666;51.436;5.978;2023-12-22T00:23:08;46.85;38.38;58.45;;
67322;Laerm;57666;51.436;5.978;2023-12-22T00:23:18;50.09;38.60;60.26;;
67322;Laerm;57666;51.436;5.978;2023-12-22T00:23:28;44.38;37.66;55.75;;
67322;Laerm;57666;51.436;5.978;2023-12-22T00:23:39;41.54;37.03;54.89;;
67322;Laerm;57666;51.436;5.978;2023-12-22T00:23:49;40.00;37.32;51.10;;
67322;Laerm;57666;51.436;5.978;2023-12-22T00:23:59;39.28;37.00;46.56;;
67322;Laerm;57666;51.436;5.978;2023-12-22T00:24:09;40.24;37.68;48.19;;
67322;Laerm;57666;51.436;5.978;2023-12-22T00:24:20;55.90;38.41;68.46;;
67322;Laerm;57666;51.436;5.978;2023-12-22T00:24:30;50.78;37.41;63.57;;
67322;Laerm;57666;51.436;5.978;2023-12-22T00:24:40;41.49;37.78;51.98;;
67322;Laerm;57666;51.436;5.978;2023-12-22T00:24:51;43.62;37.34;54.15;;
67322;Laerm;57666;51.436;5.978;2023-12-22T00:25:01;49.47;38.40;61.57;;
67322;Laerm;57666;51.436;5.978;2023-12-22T00:25:12;47.77;38.20;58.87;;
67322;Laerm;57666;51.436;5.978;2023-12-22T00:25:22;46.87;37.43;60.76;;
67322;Laerm;57666;51.436;5.978;2023-12-22T00:25:32;46.44;37.94;60.96;;
67322;Laerm;57666;51.436;5.978;2023-12-22T00:25:43;45.24;37.61;57.68;;
67322;Laerm;57666;51.436;5.978;2023-12-22T00:25:53;45.08;37.53;55.71;;
67322;Laerm;57666;51.436;5.978;2023-12-22T00:26:04;40.02;37.50;49.67;;
67322;Laerm;57666;51.436;5.978;2023-12-22T00:26:15;42.34;37.61;51.74;;
67322;Laerm;57666;51.436;5.978;2023-12-22T00:26:25;45.40;37.63;57.30;;
67322;Laerm;57666;51.436;5.978;2023-12-22T00:26:36;40.57;37.69;51.56;;
67322;Laerm;57666;51.436;5.978;2023-12-22T00:26:46;39.22;37.66;41.31;;
67322;Laerm;57666;51.436;5.978;2023-12-22T00:26:56;49.80;37.08;61.05;;
67322;Laerm;57666;51.436;5.978;2023-12-22T00:27:07;42.03;37.32;52.79;;
67322;Laerm;57666;51.436;5.978;2023-12-22T00:27:17;39.38;37.83;41.97;;
67322;Laerm;57666;51.436;5.978;2023-12-22T00:27:27;42.70;37.68;55.30;;
67322;Laerm;57666;51.436;5.978;2023-12-22T00:27:37;39.51;36.82;46.62;;
67322;Laerm;57666;51.436;5.978;2023-12-22T00:27:48;40.72;37.07;52.46;;
67322;Laerm;57666;51.436;5.978;2023-12-22T00:27:58;40.16;37.10;49.99;;
67322;Laerm;57666;51.436;5.978;2023-12-22T00:28:08;38.80;36.72;41.93;;
67322;Laerm;57666;51.436;5.978;2023-12-22T00:28:19;39.99;37.41;49.72;;
67322;Laerm;57666;51.436;5.978;2023-12-22T00:28:29;40.70;37.56;51.01;;
67322;Laerm;57666;51.436;5.978;2023-12-22T00:28:41;39.86;37.70;43.23;;
67322;Laerm;57666;51.436;5.978;2023-12-22T00:28:53;45.34;38.86;59.49;;
67322;Laerm;57666;51.436;5.978;2023-12-22T00:29:03;41.99;37.69;52.06;;
67322;Laerm;57666;51.436;5.978;2023-12-22T00:29:13;39.81;37.35;45.05;;
67322;Laerm;57666;51.436;5.978;2023-12-22T00:29:23;40.97;37.24;52.58;;
67322;Laerm;57666;51.436;5.978;2023-12-22T00:29:34;40.91;36.67;50.77;;
67322;Laerm;57666;51.436;5.978;2023-12-22T00:29:45;49.75;37.54;68.23;;
67322;Laerm;57666;51.436;5.978;2023-12-22T00:29:56;43.83;37.68;53.51;;
67322;Laerm;57666;51.436;5.978;2023-12-22T00:30:06;38.94;37.09;45.88;;
67322;Laerm;57666;51.436;5.978;2023-12-22T00:30:17;43.04;36.99;54.08;;
67322;Laerm;57666;51.436;5.978;2023-12-22T00:30:27;38.60;36.58;43.04;;
67322;Laerm;57666;51.436;5.978;2023-12-22T00:30:37;38.43;37.08;41.47;;
67322;Laerm;57666;51.436;5.978;2023-12-22T00:30:48;38.94;37.30;45.58;;
67322;Laerm;57666;51.436;5.978;2023-12-22T00:30:58;41.82;37.08;51.41;;
67322;Laerm;57666;51.436;5.978;2023-12-22T00:31:08;39.93;36.87;50.40;;
67322;Laerm;57666;51.436;5.978;2023-12-22T00:31:19;39.25;36.79;44.59;;
67322;Laerm;57666;51.436;5.978;2023-12-22T00:31:29;46.29;37.35;59.74;;
67322;Laerm;57666;51.436;5.978;2023-12-22T00:31:39;42.42;37.35;50.59;;
67322;Laerm;57666;51.436;5.978;2023-12-22T00:31:50;44.62;37.33;60.70;;
67322;Laerm;57666;51.436;5.978;2023-12-22T00:32:00;41.31;36.85;54.21;;
67322;Laerm;57666;51.436;5.978;2023-12-22T00:32:10;38.61;36.91;40.98;;
67322;Laerm;57666;51.436;5.978;2023-12-22T00:32:21;41.33;37.09;53.75;;
67322;Laerm;57666;51.436;5.978;2023-12-22T00:32:31;39.76;37.03;48.86;;
67322;Laerm;57666;51.436;5.978;2023-12-22T00:32:41;38.97;36.61;48.27;;
67322;Laerm;57666;51.436;5.978;2023-12-22T00:32:52;42.45;36.64;53.92;;
67322;Laerm;57666;51.436;5.978;2023-12-22T00:33:03;50.59;37.85;63.04;;
67322;Laerm;57666;51.436;5.978;2023-12-22T00:33:13;56.76;37.13;68.09;;
67322;Laerm;57666;51.436;5.978;2023-12-22T00:33:23;45.18;37.13;56.62;;
67322;Laerm;57666;51.436;5.978;2023-12-22T00:33:34;38.48;36.36;46.08;;
67322;Laerm;57666;51.436;5.978;2023-12-22T00:33:44;38.58;36.52;45.44;;
67322;Laerm;57666;51.436;5.978;2023-12-22T00:33:55;44.18;36.75;58.07;;
67322;Laerm;57666;51.436;5.978;2023-12-22T00:34:05;42.99;36.47;54.37;;
67322;Laerm;57666;51.436;5.978;2023-12-22T00:34:15;50.10;37.59;61.09;;
67322;Laerm;57666;51.436;5.978;2023-12-22T00:34:26;43.84;36.91;57.45;;
67322;Laerm;57666;51.436;5.978;2023-12-22T00:34:36;38.77;37.09;45.62;;
67322;Laerm;57666;51.436;5.978;2023-12-22T00:34:47;41.82;36.83;54.21;;
67322;Laerm;57666;51.436;5.978;2023-12-22T00:34:57;41.03;37.16;50.34;;
67322;Laerm;57666;51.436;5.978;2023-12-22T00:35:08;41.52;37.29;55.75;;
67322;Laerm;57666;51.436;5.978;2023-12-22T00:35:18;39.06;36.54;41.91;;
67322;Laerm;57666;51.436;5.978;2023-12-22T00:35:29;39.44;36.87;48.88;;
67322;Laerm;57666;51.436;5.978;2023-12-22T00:35:42;39.40;36.87;45.72;;
67322;Laerm;57666;51.436;5.978;2023-12-22T00:35:52;41.24;37.31;50.66;;
67322;Laerm;57666;51.436;5.978;2023-12-22T00:36:03;39.96;36.72;51.35;;
67322;Laerm;57666;51.436;5.978;2023-12-22T00:36:13;38.61;36.69;42.61;;
67322;Laerm;57666;51.436;5.978;2023-12-22T00:36:23;49.85;37.39;63.77;;
67322;Laerm;57666;51.436;5.978;2023-12-22T00:36:34;42.79;36.74;53.97;;
67322;Laerm;57666;51.436;5.978;2023-12-22T00:36:44;44.56;36.93;56.53;;
67322;Laerm;57666;51.436;5.978;2023-12-22T00:36:55;39.59;37.63;44.12;;
67322;Laerm;57666;51.436;5.978;2023-12-22T00:37:05;43.36;36.78;57.91;;
67322;Laerm;57666;51.436;5.978;2023-12-22T00:37:15;45.63;37.28;56.28;;
67322;Laerm;57666;51.436;5.978;2023-12-22T00:37:29;41.28;36.63;55.27;;
67322;Laerm;57666;51.436;5.978;2023-12-22T00:37:39;38.87;36.58;47.67;;
67322;Laerm;57666;51.436;5.978;2023-12-22T00:37:50;45.16;36.53;59.13;;
67322;Laerm;57666;51.436;5.978;2023-12-22T00:38:01;44.33;36.53;53.37;;
67322;Laerm;57666;51.436;5.978;2023-12-22T00:38:11;41.21;36.25;51.98;;
67322;Laerm;57666;51.436;5.978;2023-12-22T00:38:21;44.50;37.36;59.13;;
67322;Laerm;57666;51.436;5.978;2023-12-22T00:38:32;39.90;36.67;50.32;;
67322;Laerm;57666;51.436;5.978;2023-12-22T00:38:42;38.67;36.78;43.72;;
67322;Laerm;57666;51.436;5.978;2023-12-22T00:38:52;38.52;36.84;40.86;;
67322;Laerm;57666;51.436;5.978;2023-12-22T00:39:03;38.21;36.14;44.25;;
67322;Laerm;57666;51.436;5.978;2023-12-22T00:39:13;37.89;36.45;40.75;;
67322;Laerm;57666;51.436;5.978;2023-12-22T00:39:24;39.83;36.53;49.43;;
67322;Laerm;57666;51.436;5.978;2023-12-22T00:39:34;46.50;37.30;56.70;;
67322;Laerm;57666;51.436;5.978;2023-12-22T00:39:45;39.18;37.06;48.36;;
67322;Laerm;57666;51.436;5.978;2023-12-22T00:39:55;38.55;36.79;42.17;;
67322;Laerm;57666;51.436;5.978;2023-12-22T00:40:08;43.47;36.49;55.35;;
67322;Laerm;57666;51.436;5.978;2023-12-22T00:40:19;40.92;36.26;53.16;;
67322;Laerm;57666;51.436;5.978;2023-12-22T00:40:29;43.41;36.65;55.57;;
67322;Laerm;57666;51.436;5.978;2023-12-22T00:40:40;39.09;36.53;46.76;;
67322;Laerm;57666;51.436;5.978;2023-12-22T00:40:50;37.82;36.68;39.49;;
67322;Laerm;57666;51.436;5.978;2023-12-22T00:41:00;37.84;36.19;40.70;;
67322;Laerm;57666;51.436;5.978;2023-12-22T00:41:11;37.66;36.16;39.57;;
67322;Laerm;57666;51.436;5.978;2023-12-22T00:41:21;37.83;36.47;42.65;;
67322;Laerm;57666;51.436;5.978;2023-12-22T00:41:32;38.16;36.88;43.90;;
67322;Laerm;57666;51.436;5.978;2023-12-22T00:41:42;38.77;36.57;47.01;;
67322;Laerm;57666;51.436;5.978;2023-12-22T00:41:52;38.19;35.98;44.70;;
67322;Laerm;57666;51.436;5.978;2023-12-22T00:42:03;37.58;36.05;39.19;;
67322;Laerm;57666;51.436;5.978;2023-12-22T00:42:14;47.48;36.49;62.40;;
67322;Laerm;57666;51.436;5.978;2023-12-22T00:42:24;41.65;36.46;53.24;;
67322;Laerm;57666;51.436;5.978;2023-12-22T00:42:36;38.85;36.62;45.15;;
67322;Laerm;57666;51.436;5.978;2023-12-22T00:42:46;46.83;37.25;58.60;;
67322;Laerm;57666;51.436;5.978;2023-12-22T00:42:56;44.23;36.94;55.29;;
67322;Laerm;57666;51.436;5.978;2023-12-22T00:43:07;43.71;36.52;54.92;;
67322;Laerm;57666;51.436;5.978;2023-12-22T00:43:17;43.89;36.69;55.09;;
67322;Laerm;57666;51.436;5.978;2023-12-22T00:43:27;48.48;36.99;59.98;;
67322;Laerm;57666;51.436;5.978;2023-12-22T00:43:38;37.86;36.25;41.19;;
67322;Laerm;57666;51.436;5.978;2023-12-22T00:43:48;41.61;36.02;54.50;;
67322;Laerm;57666;51.436;5.978;2023-12-22T00:43:58;42.34;36.27;52.37;;
67322;Laerm;57666;51.436;5.978;2023-12-22T00:44:09;44.20;36.69;55.37;;
67322;Laerm;57666;51.436;5.978;2023-12-22T00:44:19;37.72;36.21;38.95;;
67322;Laerm;57666;51.436;5.978;2023-12-22T00:44:30;40.30;36.14;50.25;;
67322;Laerm;57666;51.436;5.978;2023-12-22T00:44:40;39.00;36.29;47.98;;
67322;Laerm;57666;51.436;5.978;2023-12-22T00:44:51;38.00;36.48;40.80;;
67322;Laerm;57666;51.436;5.978;2023-12-22T00:45:01;39.28;36.44;49.64;;
67322;Laerm;57666;51.436;5.978;2023-12-22T00:45:12;38.65;36.39;45.65;;
67322;Laerm;57666;51.436;5.978;2023-12-22T00:45:22;46.55;37.13;58.39;;
67322;Laerm;57666;51.436;5.978;2023-12-22T00:45:32;40.16;35.96;52.33;;
67322;Laerm;57666;51.436;5.978;2023-12-22T00:45:43;37.99;36.16;43.89;;
67322;Laerm;57666;51.436;5.978;2023-12-22T00:45:54;37.75;36.16;39.39;;
67322;Laerm;57666;51.436;5.978;2023-12-22T00:46:06;38.05;36.67;39.70;;
67322;Laerm;57666;51.436;5.978;2023-12-22T00:46:16;38.53;36.50;43.85;;
67322;Laerm;57666;51.436;5.978;2023-12-22T00:46:26;45.58;36.78;58.98;;
67322;Laerm;57666;51.436;5.978;2023-12-22T00:46:37;39.32;36.55;48.28;;
67322;Laerm;57666;51.436;5.978;2023-12-22T00:46:47;38.93;36.01;46.03;;
67322;Laerm;57666;51.436;5.978;2023-12-22T00:46:57;37.99;36.34;44.49;;
67322;Laerm;57666;51.436;5.978;2023-12-22T00:47:08;38.38;36.23;44.19;;
67322;Laerm;57666;51.436;5.978;2023-12-22T00:47:18;37.78;36.27;41.01;;
67322;Laerm;57666;51.436;5.978;2023-12-22T00:47:29;37.48;36.17;39.01;;
67322;Laerm;57666;51.436;5.978;2023-12-22T00:47:39;37.44;36.16;38.95;;
67322;Laerm;57666;51.436;5.978;2023-12-22T00:47:49;37.64;36.23;40.18;;
67322;Laerm;57666;51.436;5.978;2023-12-22T00:48:00;38.04;36.30;42.97;;
67322;Laerm;57666;51.436;5.978;2023-12-22T00:48:10;37.77;36.04;39.56;;
67322;Laerm;57666;51.436;5.978;2023-12-22T00:48:20;37.48;35.92;39.37;;
67322;Laerm;57666;51.436;5.978;2023-12-22T00:48:31;37.74;35.94;44.89;;
67322;Laerm;57666;51.436;5.978;2023-12-22T00:48:41;37.65;36.35;39.09;;
67322;Laerm;57666;51.436;5.978;2023-12-22T00:48:52;37.62;35.86;39.04;;
67322;Laerm;57666;51.436;5.978;2023-12-22T00:49:02;37.37;36.02;38.72;;
67322;Laerm;57666;51.436;5.978;2023-12-22T00:49:15;37.58;36.18;38.98;;
67322;Laerm;57666;51.436;5.978;2023-12-22T00:49:26;37.42;35.70;38.79;;
67322;Laerm;57666;51.436;5.978;2023-12-22T00:49:36;38.03;36.24;40.53;;
67322;Laerm;57666;51.436;5.978;2023-12-22T00:49:47;38.03;36.00;39.78;;
67322;Laerm;57666;51.436;5.978;2023-12-22T00:49:57;37.79;36.32;39.15;;
67322;Laerm;57666;51.436;5.978;2023-12-22T00:50:09;38.84;36.60;47.48;;
67322;Laerm;57666;51.436;5.978;2023-12-22T00:50:19;38.00;36.44;40.30;;
67322;Laerm;57666;51.436;5.978;2023-12-22T00:50:30;37.94;36.25;39.81;;
67322;Laerm;57666;51.436;5.978;2023-12-22T00:50:40;38.20;36.56;42.25;;
67322;Laerm;57666;51.436;5.978;2023-12-22T00:50:50;38.28;36.37;44.42;;
67322;Laerm;57666;51.436;5.978;2023-12-22T00:51:01;38.00;36.33;40.85;;
67322;Laerm;57666;51.436;5.978;2023-12-22T00:51:11;38.06;36.52;42.01;;
67322;Laerm;57666;51.436;5.978;2023-12-22T00:51:21;38.36;36.85;40.03;;
67322;Laerm;57666;51.436;5.978;2023-12-22T00:51:32;38.18;36.74;40.49;;
67322;Laerm;57666;51.436;5.978;2023-12-22T00:51:42;38.07;36.11;39.60;;
67322;Laerm;57666;51.436;5.978;2023-12-22T00:51:52;38.43;36.61;45.13;;
67322;Laerm;57666;51.436;5.978;2023-12-22T00:52:03;38.01;36.27;39.63;;
67322;Laerm;57666;51.436;5.978;2023-12-22T00:52:13;37.95;36.29;39.44;;
67322;Laerm;57666;51.436;5.978;2023-12-22T00:52:24;37.87;36.33;39.07;;
67322;Laerm;57666;51.436;5.978;2023-12-22T00:52:34;38.07;36.49;39.47;;
67322;Laerm;57666;51.436;5.978;2023-12-22T00:52:44;38.38;36.63;40.36;;
67322;Laerm;57666;51.436;5.978;2023-12-22T00:52:55;38.09;36.21;39.53;;
67322;Laerm;57666;51.436;5.978;2023-12-22T00:53:05;38.36;36.44;47.38;;
67322;Laerm;57666;51.436;5.978;2023-12-22T00:53:16;38.20;36.50;40.03;;
67322;Laerm;57666;51.436;5.978;2023-12-22T00:53:26;39.01;36.95;44.77;;
67322;Laerm;57666;51.436;5.978;2023-12-22T00:53:37;41.95;36.88;51.16;;
67322;Laerm;57666;51.436;5.978;2023-12-22T00:53:47;38.78;37.00;43.55;;
67322;Laerm;57666;51.436;5.978;2023-12-22T00:53:57;39.11;37.20;41.20;;
67322;Laerm;57666;51.436;5.978;2023-12-22T00:54:08;38.28;36.86;39.84;;
67322;Laerm;57666;51.436;5.978;2023-12-22T00:54:18;39.24;36.41;48.23;;
67322;Laerm;57666;51.436;5.978;2023-12-22T00:54:29;38.45;37.05;39.94;;
67322;Laerm;57666;51.436;5.978;2023-12-22T00:54:41;38.47;36.61;40.15;;
67322;Laerm;57666;51.436;5.978;2023-12-22T00:54:51;38.71;37.16;41.00;;
67322;Laerm;57666;51.436;5.978;2023-12-22T00:55:02;38.84;37.14;40.70;;
67322;Laerm;57666;51.436;5.978;2023-12-22T00:55:13;38.66;37.02;40.58;;
67322;Laerm;57666;51.436;5.978;2023-12-22T00:55:23;38.18;36.48;39.88;;
67322;Laerm;57666;51.436;5.978;2023-12-22T00:55:33;38.75;37.05;41.97;;
67322;Laerm;57666;51.436;5.978;2023-12-22T00:55:44;38.64;36.79;41.36;;
67322;Laerm;57666;51.436;5.978;2023-12-22T00:55:54;38.68;36.64;42.02;;
67322;Laerm;57666;51.436;5.978;2023-12-22T00:56:04;38.81;36.84;45.23;;
67322;Laerm;57666;51.436;5.978;2023-12-22T00:56:16;42.92;36.85;57.21;;
67322;Laerm;57666;51.436;5.978;2023-12-22T00:56:26;39.46;36.87;47.88;;
67322;Laerm;57666;51.436;5.978;2023-12-22T00:56:37;38.65;37.16;40.04;;
67322;Laerm;57666;51.436;5.978;2023-12-22T00:56:47;38.81;37.33;43.02;;
67322;Laerm;57666;51.436;5.978;2023-12-22T00:56:57;39.75;37.22;49.97;;
67322;Laerm;57666;51.436;5.978;2023-12-22T00:57:08;42.17;36.82;53.49;;
67322;Laerm;57666;51.436;5.978;2023-12-22T00:57:18;38.85;36.99;44.42;;
67322;Laerm;57666;51.436;5.978;2023-12-22T00:57:28;38.98;37.24;43.63;;
67322;Laerm;57666;51.436;5.978;2023-12-22T00:57:40;38.85;37.07;42.92;;
67322;Laerm;57666;51.436;5.978;2023-12-22T00:57:50;41.28;37.28;46.72;;
67322;Laerm;57666;51.436;5.978;2023-12-22T00:58:00;40.21;37.82;45.69;;
67322;Laerm;57666;51.436;5.978;2023-12-22T00:58:11;40.23;37.22;50.94;;
67322;Laerm;57666;51.436;5.978;2023-12-22T00:58:21;39.26;37.47;42.75;;
67322;Laerm;57666;51.436;5.978;2023-12-22T00:58:31;38.79;36.90;43.74;;
67322;Laerm;57666;51.436;5.978;2023-12-22T00:58:42;38.51;36.97;40.31;;
67322;Laerm;57666;51.436;5.978;2023-12-22T00:58:52;38.81;37.05;47.95;;